sensor_id;sensor_type;location;lat;lon;timestamp;P1;durP1;ratioP1;P2;durP2;ratioP2
29432;SDS011;16405;53.964;13.448;2023-02-22T00:00:50;55.00;;;5.53;;
29432;SDS011;16405;53.964;13.448;2023-02-22T00:03:24;48.92;;;5.95;;
29432;SDS011;16405;53.964;13.448;2023-02-22T00:06:05;55.58;;;6.38;;
29432;SDS011;16405;53.964;13.448;2023-02-22T00:08:32;72.70;;;7.00;;
29432;SDS011;16405;53.964;13.448;2023-02-22T00:11:02;62.28;;;6.65;;
29432;SDS011;16405;53.964;13.448;2023-02-22T00:13:32;48.53;;;6.03;;
29432;SDS011;16405;53.964;13.448;2023-02-22T00:16:02;41.72;;;5.13;;
29432;SDS011;16405;53.964;13.448;2023-02-22T00:18:28;54.00;;;6.13;;
29432;SDS011;16405;53.964;13.448;2023-02-22T00:20:55;57.13;;;7.75;;
29432;SDS011;16405;53.964;13.448;2023-02-22T00:23:25;67.63;;;6.30;;
29432;SDS011;16405;53.964;13.448;2023-02-22T00:25:55;54.60;;;6.60;;
29432;SDS011;16405;53.964;13.448;2023-02-22T00:28:23;60.45;;;6.63;;
29432;SDS011;16405;53.964;13.448;2023-02-22T00:30:49;64.03;;;8.35;;
29432;SDS011;16405;53.964;13.448;2023-02-22T00:33:23;88.00;;;10.25;;
29432;SDS011;16405;53.964;13.448;2023-02-22T00:35:49;87.63;;;12.45;;
29432;SDS011;16405;53.964;13.448;2023-02-22T00:38:16;224.25;;;53.50;;
29432;SDS011;16405;53.964;13.448;2023-02-22T00:40:43;106.38;;;23.20;;
29432;SDS011;16405;53.964;13.448;2023-02-22T00:43:13;88.05;;;18.35;;
29432;SDS011;16405;53.964;13.448;2023-02-22T00:45:39;127.15;;;28.90;;
29432;SDS011;16405;53.964;13.448;2023-02-22T00:48:06;61.17;;;6.57;;
29432;SDS011;16405;53.964;13.448;2023-02-22T00:50:33;51.83;;;6.00;;
29432;SDS011;16405;53.964;13.448;2023-02-22T00:53:07;66.90;;;6.80;;
29432;SDS011;16405;53.964;13.448;2023-02-22T00:55:35;55.28;;;7.00;;
29432;SDS011;16405;53.964;13.448;2023-02-22T00:58:02;64.60;;;7.18;;
29432;SDS011;16405;53.964;13.448;2023-02-22T01:00:36;54.88;;;5.95;;
29432;SDS011;16405;53.964;13.448;2023-02-22T01:03:06;50.60;;;5.28;;
29432;SDS011;16405;53.964;13.448;2023-02-22T01:05:38;65.70;;;5.57;;
29432;SDS011;16405;53.964;13.448;2023-02-22T01:08:05;51.50;;;6.45;;
29432;SDS011;16405;53.964;13.448;2023-02-22T01:10:33;110.95;;;24.38;;
29432;SDS011;16405;53.964;13.448;2023-02-22T01:13:01;55.03;;;6.20;;
29432;SDS011;16405;53.964;13.448;2023-02-22T01:15:32;63.22;;;6.63;;
29432;SDS011;16405;53.964;13.448;2023-02-22T01:18:00;47.55;;;4.65;;
29432;SDS011;16405;53.964;13.448;2023-02-22T01:20:36;63.00;;;12.35;;
29432;SDS011;16405;53.964;13.448;2023-02-22T01:23:03;82.10;;;28.90;;
29432;SDS011;16405;53.964;13.448;2023-02-22T01:25:31;88.35;;;28.23;;
29432;SDS011;16405;53.964;13.448;2023-02-22T01:28:01;95.90;;;24.70;;
29432;SDS011;16405;53.964;13.448;2023-02-22T01:30:30;64.95;;;6.55;;
29432;SDS011;16405;53.964;13.448;2023-02-22T01:33:02;49.20;;;5.25;;
29432;SDS011;16405;53.964;13.448;2023-02-22T01:35:31;77.28;;;12.13;;
29432;SDS011;16405;53.964;13.448;2023-02-22T01:38:07;103.70;;;32.15;;
29432;SDS011;16405;53.964;13.448;2023-02-22T01:40:38;94.95;;;27.63;;
29432;SDS011;16405;53.964;13.448;2023-02-22T01:43:23;74.95;;;18.40;;
29432;SDS011;16405;53.964;13.448;2023-02-22T01:46:01;72.03;;;21.90;;
29432;SDS011;16405;53.964;13.448;2023-02-22T01:48:46;80.47;;;19.40;;
29432;SDS011;16405;53.964;13.448;2023-02-22T01:51:35;219.00;;;82.70;;
29432;SDS011;16405;53.964;13.448;2023-02-22T01:54:09;180.88;;;67.95;;
29432;SDS011;16405;53.964;13.448;2023-02-22T01:56:53;154.50;;;47.53;;
29432;SDS011;16405;53.964;13.448;2023-02-22T01:59:45;61.17;;;9.38;;
29432;SDS011;16405;53.964;13.448;2023-02-22T02:02:16;65.35;;;6.20;;
29432;SDS011;16405;53.964;13.448;2023-02-22T02:04:53;43.38;;;5.75;;
29432;SDS011;16405;53.964;13.448;2023-02-22T02:07:22;60.03;;;5.82;;
29432;SDS011;16405;53.964;13.448;2023-02-22T02:09:57;50.80;;;5.93;;
29432;SDS011;16405;53.964;13.448;2023-02-22T02:12:38;52.20;;;5.82;;
29432;SDS011;16405;53.964;13.448;2023-02-22T02:15:23;57.90;;;6.03;;
29432;SDS011;16405;53.964;13.448;2023-02-22T02:17:53;52.00;;;6.47;;
29432;SDS011;16405;53.964;13.448;2023-02-22T02:35:18;68.03;;;6.65;;
29432;SDS011;16405;53.964;13.448;2023-02-22T02:46:57;40.78;;;5.90;;
29432;SDS011;16405;53.964;13.448;2023-02-22T02:49:32;58.13;;;11.82;;
29432;SDS011;16405;53.964;13.448;2023-02-22T02:52:09;68.00;;;10.25;;
29432;SDS011;16405;53.964;13.448;2023-02-22T02:54:47;47.83;;;5.45;;
29432;SDS011;16405;53.964;13.448;2023-02-22T02:57:14;38.85;;;6.57;;
29432;SDS011;16405;53.964;13.448;2023-02-22T02:59:42;53.50;;;8.43;;
29432;SDS011;16405;53.964;13.448;2023-02-22T03:07:55;49.78;;;6.45;;
29432;SDS011;16405;53.964;13.448;2023-02-22T03:15:52;60.00;;;5.68;;
29432;SDS011;16405;53.964;13.448;2023-02-22T03:24:41;56.53;;;6.10;;
29432;SDS011;16405;53.964;13.448;2023-02-22T03:27:22;65.25;;;6.05;;
29432;SDS011;16405;53.964;13.448;2023-02-22T03:30:00;58.40;;;6.15;;
29432;SDS011;16405;53.964;13.448;2023-02-22T03:32:35;47.70;;;5.03;;
29432;SDS011;16405;53.964;13.448;2023-02-22T03:35:07;52.25;;;5.90;;
29432;SDS011;16405;53.964;13.448;2023-02-22T03:37:44;50.33;;;6.47;;
29432;SDS011;16405;53.964;13.448;2023-02-22T03:40:19;56.97;;;6.30;;
29432;SDS011;16405;53.964;13.448;2023-02-22T03:43:09;74.07;;;7.03;;
29432;SDS011;16405;53.964;13.448;2023-02-22T03:45:41;61.55;;;7.78;;
29432;SDS011;16405;53.964;13.448;2023-02-22T03:48:20;57.88;;;7.13;;
29432;SDS011;16405;53.964;13.448;2023-02-22T03:51:18;48.75;;;5.35;;
29432;SDS011;16405;53.964;13.448;2023-02-22T03:53:44;44.95;;;5.38;;
29432;SDS011;16405;53.964;13.448;2023-02-22T03:56:24;40.13;;;5.43;;
29432;SDS011;16405;53.964;13.448;2023-02-22T03:59:01;46.38;;;5.53;;
29432;SDS011;16405;53.964;13.448;2023-02-22T04:01:41;55.97;;;6.60;;
29432;SDS011;16405;53.964;13.448;2023-02-22T04:04:06;60.80;;;6.05;;
29432;SDS011;16405;53.964;13.448;2023-02-22T04:06:32;43.40;;;6.32;;
29432;SDS011;16405;53.964;13.448;2023-02-22T04:09:00;54.60;;;6.00;;
29432;SDS011;16405;53.964;13.448;2023-02-22T04:11:29;51.30;;;6.30;;
29432;SDS011;16405;53.964;13.448;2023-02-22T04:13:55;31.45;;;4.35;;
29432;SDS011;16405;53.964;13.448;2023-02-22T04:16:21;35.47;;;4.72;;
29432;SDS011;16405;53.964;13.448;2023-02-22T04:18:46;44.25;;;5.50;;
29432;SDS011;16405;53.964;13.448;2023-02-22T04:21:12;42.70;;;5.55;;
29432;SDS011;16405;53.964;13.448;2023-02-22T04:23:38;43.78;;;6.38;;
29432;SDS011;16405;53.964;13.448;2023-02-22T04:26:11;53.70;;;7.32;;
29432;SDS011;16405;53.964;13.448;2023-02-22T04:28:37;32.85;;;5.45;;
29432;SDS011;16405;53.964;13.448;2023-02-22T04:31:03;50.67;;;5.20;;
29432;SDS011;16405;53.964;13.448;2023-02-22T04:33:29;51.58;;;6.07;;
29432;SDS011;16405;53.964;13.448;2023-02-22T04:36:04;60.67;;;6.80;;
29432;SDS011;16405;53.964;13.448;2023-02-22T04:38:31;52.17;;;5.25;;
29432;SDS011;16405;53.964;13.448;2023-02-22T04:40:57;48.58;;;5.70;;
29432;SDS011;16405;53.964;13.448;2023-02-22T04:43:28;66.82;;;7.13;;
29432;SDS011;16405;53.964;13.448;2023-02-22T04:45:54;50.97;;;5.78;;
29432;SDS011;16405;53.964;13.448;2023-02-22T04:48:19;56.58;;;6.35;;
29432;SDS011;16405;53.964;13.448;2023-02-22T04:50:45;53.65;;;6.70;;
29432;SDS011;16405;53.964;13.448;2023-02-22T04:53:11;58.08;;;6.70;;
29432;SDS011;16405;53.964;13.448;2023-02-22T04:55:37;80.82;;;7.28;;
29432;SDS011;16405;53.964;13.448;2023-02-22T04:58:10;60.05;;;6.13;;
29432;SDS011;16405;53.964;13.448;2023-02-22T05:00:36;69.22;;;7.20;;
29432;SDS011;16405;53.964;13.448;2023-02-22T05:03:02;73.00;;;7.22;;
29432;SDS011;16405;53.964;13.448;2023-02-22T05:05:28;61.80;;;7.72;;
29432;SDS011;16405;53.964;13.448;2023-02-22T05:07:54;65.85;;;7.38;;
29432;SDS011;16405;53.964;13.448;2023-02-22T05:10:22;91.47;;;8.80;;
29432;SDS011;16405;53.964;13.448;2023-02-22T05:12:48;62.05;;;8.07;;
29432;SDS011;16405;53.964;13.448;2023-02-22T05:15:16;78.32;;;7.50;;
29432;SDS011;16405;53.964;13.448;2023-02-22T05:17:44;88.60;;;8.55;;
29432;SDS011;16405;53.964;13.448;2023-02-22T05:20:25;67.00;;;8.55;;
29432;SDS011;16405;53.964;13.448;2023-02-22T05:22:54;78.80;;;8.20;;
29432;SDS011;16405;53.964;13.448;2023-02-22T05:25:21;84.18;;;8.05;;
29432;SDS011;16405;53.964;13.448;2023-02-22T05:27:51;77.50;;;9.90;;
29432;SDS011;16405;53.964;13.448;2023-02-22T05:30:24;72.97;;;7.38;;
29432;SDS011;16405;53.964;13.448;2023-02-22T05:32:54;66.30;;;7.95;;
29432;SDS011;16405;53.964;13.448;2023-02-22T05:35:21;74.40;;;6.80;;
29432;SDS011;16405;53.964;13.448;2023-02-22T05:37:52;65.38;;;7.32;;
29432;SDS011;16405;53.964;13.448;2023-02-22T05:40:18;75.72;;;7.25;;
29432;SDS011;16405;53.964;13.448;2023-02-22T05:42:48;81.15;;;8.20;;
29432;SDS011;16405;53.964;13.448;2023-02-22T05:45:18;76.50;;;7.03;;
29432;SDS011;16405;53.964;13.448;2023-02-22T05:47:48;76.30;;;7.30;;
29432;SDS011;16405;53.964;13.448;2023-02-22T05:50:15;63.40;;;7.97;;
29432;SDS011;16405;53.964;13.448;2023-02-22T05:52:43;52.35;;;7.18;;
29432;SDS011;16405;53.964;13.448;2023-02-22T05:55:12;83.63;;;11.52;;
29432;SDS011;16405;53.964;13.448;2023-02-22T05:57:42;100.05;;;19.42;;
29432;SDS011;16405;53.964;13.448;2023-02-22T06:00:09;76.05;;;12.85;;
29432;SDS011;16405;53.964;13.448;2023-02-22T06:02:57;64.57;;;8.25;;
29432;SDS011;16405;53.964;13.448;2023-02-22T06:05:32;81.40;;;11.85;;
29432;SDS011;16405;53.964;13.448;2023-02-22T06:08:00;76.22;;;10.95;;
29432;SDS011;16405;53.964;13.448;2023-02-22T06:10:28;64.63;;;9.45;;
29432;SDS011;16405;53.964;13.448;2023-02-22T06:12:54;63.25;;;7.95;;
29432;SDS011;16405;53.964;13.448;2023-02-22T06:15:21;93.28;;;7.18;;
29432;SDS011;16405;53.964;13.448;2023-02-22T06:17:51;59.30;;;6.90;;
29432;SDS011;16405;53.964;13.448;2023-02-22T06:20:20;45.40;;;5.68;;
29432;SDS011;16405;53.964;13.448;2023-02-22T06:22:48;39.72;;;6.20;;
29432;SDS011;16405;53.964;13.448;2023-02-22T06:25:23;56.75;;;6.30;;
29432;SDS011;16405;53.964;13.448;2023-02-22T06:27:52;51.47;;;5.85;;
29432;SDS011;16405;53.964;13.448;2023-02-22T06:30:22;66.10;;;6.82;;
29432;SDS011;16405;53.964;13.448;2023-02-22T06:32:49;68.85;;;6.35;;
29432;SDS011;16405;53.964;13.448;2023-02-22T06:35:15;47.40;;;5.40;;
29432;SDS011;16405;53.964;13.448;2023-02-22T06:37:41;57.17;;;6.30;;
29432;SDS011;16405;53.964;13.448;2023-02-22T06:40:07;61.45;;;6.43;;
29432;SDS011;16405;53.964;13.448;2023-02-22T06:42:45;55.95;;;7.55;;
29432;SDS011;16405;53.964;13.448;2023-02-22T06:45:13;62.45;;;6.38;;
29432;SDS011;16405;53.964;13.448;2023-02-22T06:47:46;46.03;;;5.40;;
29432;SDS011;16405;53.964;13.448;2023-02-22T06:52:52;91.55;;;8.07;;
29432;SDS011;16405;53.964;13.448;2023-02-22T06:55:20;78.03;;;7.15;;
29432;SDS011;16405;53.964;13.448;2023-02-22T06:57:58;57.00;;;6.40;;
29432;SDS011;16405;53.964;13.448;2023-02-22T07:00:25;56.75;;;6.65;;
29432;SDS011;16405;53.964;13.448;2023-02-22T07:02:55;45.00;;;6.10;;
29432;SDS011;16405;53.964;13.448;2023-02-22T07:05:21;53.47;;;7.05;;
29432;SDS011;16405;53.964;13.448;2023-02-22T07:07:49;46.42;;;6.00;;
29432;SDS011;16405;53.964;13.448;2023-02-22T07:10:18;60.60;;;6.80;;
29432;SDS011;16405;53.964;13.448;2023-02-22T07:12:50;58.63;;;6.60;;
29432;SDS011;16405;53.964;13.448;2023-02-22T07:15:16;56.40;;;6.20;;
29432;SDS011;16405;53.964;13.448;2023-02-22T07:17:45;53.40;;;6.85;;
29432;SDS011;16405;53.964;13.448;2023-02-22T07:20:18;65.40;;;8.07;;
29432;SDS011;16405;53.964;13.448;2023-02-22T07:22:46;68.40;;;8.80;;
29432;SDS011;16405;53.964;13.448;2023-02-22T07:25:13;105.47;;;10.27;;
29432;SDS011;16405;53.964;13.448;2023-02-22T07:27:46;75.30;;;8.73;;
29432;SDS011;16405;53.964;13.448;2023-02-22T07:30:17;80.03;;;8.98;;
29432;SDS011;16405;53.964;13.448;2023-02-22T07:32:55;93.05;;;7.60;;
29432;SDS011;16405;53.964;13.448;2023-02-22T07:35:27;82.18;;;7.25;;
29432;SDS011;16405;53.964;13.448;2023-02-22T07:38:00;93.45;;;8.25;;
29432;SDS011;16405;53.964;13.448;2023-02-22T07:40:32;87.70;;;7.72;;
29432;SDS011;16405;53.964;13.448;2023-02-22T07:43:00;53.72;;;5.03;;
29432;SDS011;16405;53.964;13.448;2023-02-22T07:45:46;118.35;;;7.57;;
29432;SDS011;16405;53.964;13.448;2023-02-22T07:48:23;107.97;;;9.05;;
29432;SDS011;16405;53.964;13.448;2023-02-22T07:50:58;79.10;;;7.53;;
29432;SDS011;16405;53.964;13.448;2023-02-22T07:53:25;83.35;;;5.80;;
29432;SDS011;16405;53.964;13.448;2023-02-22T07:55:57;138.25;;;8.95;;
29432;SDS011;16405;53.964;13.448;2023-02-22T07:58:26;129.90;;;8.43;;
29432;SDS011;16405;53.964;13.448;2023-02-22T08:00:55;127.43;;;8.20;;
29432;SDS011;16405;53.964;13.448;2023-02-22T08:03:23;130.25;;;6.75;;
29432;SDS011;16405;53.964;13.448;2023-02-22T08:05:56;207.75;;;9.45;;
29432;SDS011;16405;53.964;13.448;2023-02-22T08:08:24;161.77;;;8.13;;
29432;SDS011;16405;53.964;13.448;2023-02-22T08:10:50;127.53;;;8.70;;
29432;SDS011;16405;53.964;13.448;2023-02-22T08:13:22;124.22;;;9.82;;
29432;SDS011;16405;53.964;13.448;2023-02-22T08:15:50;98.13;;;8.23;;
29432;SDS011;16405;53.964;13.448;2023-02-22T08:18:25;237.05;;;11.75;;
29432;SDS011;16405;53.964;13.448;2023-02-22T08:20:51;174.88;;;9.60;;
29432;SDS011;16405;53.964;13.448;2023-02-22T08:23:19;201.70;;;10.60;;
29432;SDS011;16405;53.964;13.448;2023-02-22T08:25:55;324.83;;;12.18;;
29432;SDS011;16405;53.964;13.448;2023-02-22T08:28:22;179.25;;;11.32;;
29432;SDS011;16405;53.964;13.448;2023-02-22T08:30:49;307.85;;;12.88;;
29432;SDS011;16405;53.964;13.448;2023-02-22T08:33:20;204.48;;;11.15;;
29432;SDS011;16405;53.964;13.448;2023-02-22T08:35:46;185.30;;;11.10;;
29432;SDS011;16405;53.964;13.448;2023-02-22T08:38:21;266.67;;;12.38;;
29432;SDS011;16405;53.964;13.448;2023-02-22T08:40:53;229.27;;;11.98;;
29432;SDS011;16405;53.964;13.448;2023-02-22T08:43:20;45.70;;;3.97;;
29432;SDS011;16405;53.964;13.448;2023-02-22T08:45:52;180.68;;;10.77;;
29432;SDS011;16405;53.964;13.448;2023-02-22T08:48:18;159.13;;;11.25;;
29432;SDS011;16405;53.964;13.448;2023-02-22T08:50:44;304.13;;;14.70;;
29432;SDS011;16405;53.964;13.448;2023-02-22T08:53:11;166.18;;;12.93;;
29432;SDS011;16405;53.964;13.448;2023-02-22T08:55:42;153.90;;;13.40;;
29432;SDS011;16405;53.964;13.448;2023-02-22T08:58:09;150.85;;;13.38;;
29432;SDS011;16405;53.964;13.448;2023-02-22T09:00:36;117.35;;;12.25;;
29432;SDS011;16405;53.964;13.448;2023-02-22T09:03:06;118.90;;;12.77;;
29432;SDS011;16405;53.964;13.448;2023-02-22T09:05:37;88.38;;;11.45;;
29432;SDS011;16405;53.964;13.448;2023-02-22T09:08:03;150.43;;;12.90;;
29432;SDS011;16405;53.964;13.448;2023-02-22T09:10:32;172.93;;;13.38;;
29432;SDS011;16405;53.964;13.448;2023-02-22T09:13:04;89.03;;;13.15;;
29432;SDS011;16405;53.964;13.448;2023-02-22T09:15:31;184.45;;;15.00;;
29432;SDS011;16405;53.964;13.448;2023-02-22T09:18:03;215.77;;;15.18;;
29432;SDS011;16405;53.964;13.448;2023-02-22T09:20:35;164.07;;;15.27;;
29432;SDS011;16405;53.964;13.448;2023-02-22T09:23:02;145.00;;;15.60;;
29432;SDS011;16405;53.964;13.448;2023-02-22T09:25:29;114.72;;;16.02;;
29432;SDS011;16405;53.964;13.448;2023-02-22T09:28:02;104.40;;;15.07;;
29432;SDS011;16405;53.964;13.448;2023-02-22T09:30:30;77.32;;;14.23;;
29432;SDS011;16405;53.964;13.448;2023-02-22T09:33:07;123.55;;;15.02;;
29432;SDS011;16405;53.964;13.448;2023-02-22T09:35:44;118.22;;;15.63;;
29432;SDS011;16405;53.964;13.448;2023-02-22T09:38:14;160.15;;;16.30;;
29432;SDS011;16405;53.964;13.448;2023-02-22T09:41:01;131.90;;;15.80;;
29432;SDS011;16405;53.964;13.448;2023-02-22T09:43:49;74.10;;;15.85;;
29432;SDS011;16405;53.964;13.448;2023-02-22T09:46:39;120.25;;;15.52;;
29432;SDS011;16405;53.964;13.448;2023-02-22T09:49:20;61.45;;;15.63;;
29432;SDS011;16405;53.964;13.448;2023-02-22T09:58:34;61.55;;;16.52;;
29432;SDS011;16405;53.964;13.448;2023-02-22T10:04:12;32.95;;;10.80;;
29432;SDS011;16405;53.964;13.448;2023-02-22T10:10:31;55.83;;;16.92;;
29432;SDS011;16405;53.964;13.448;2023-02-22T10:17:00;44.50;;;11.32;;
29432;SDS011;16405;53.964;13.448;2023-02-22T10:25:51;44.28;;;11.23;;
29432;SDS011;16405;53.964;13.448;2023-02-22T10:28:36;48.08;;;10.63;;
29432;SDS011;16405;53.964;13.448;2023-02-22T10:31:26;49.47;;;13.85;;
29432;SDS011;16405;53.964;13.448;2023-02-22T10:34:00;54.53;;;14.10;;
29432;SDS011;16405;53.964;13.448;2023-02-22T10:36:34;46.90;;;12.52;;
29432;SDS011;16405;53.964;13.448;2023-02-22T10:39:19;55.45;;;15.90;;
29432;SDS011;16405;53.964;13.448;2023-02-22T10:42:02;60.88;;;18.15;;
29432;SDS011;16405;53.964;13.448;2023-02-22T10:44:41;61.65;;;18.38;;
29432;SDS011;16405;53.964;13.448;2023-02-22T10:47:16;60.65;;;17.73;;
29432;SDS011;16405;53.964;13.448;2023-02-22T10:49:57;64.47;;;13.98;;
29432;SDS011;16405;53.964;13.448;2023-02-22T10:54:58;73.03;;;18.58;;
29432;SDS011;16405;53.964;13.448;2023-02-22T10:57:31;74.43;;;14.00;;
29432;SDS011;16405;53.964;13.448;2023-02-22T11:05:42;61.58;;;16.77;;
29432;SDS011;16405;53.964;13.448;2023-02-22T11:10:56;64.07;;;19.27;;
29432;SDS011;16405;53.964;13.448;2023-02-22T11:13:29;59.97;;;17.67;;
29432;SDS011;16405;53.964;13.448;2023-02-22T11:16:19;73.88;;;19.60;;
29432;SDS011;16405;53.964;13.448;2023-02-22T11:18:59;60.58;;;20.10;;
29432;SDS011;16405;53.964;13.448;2023-02-22T11:21:34;24.35;;;7.38;;
29432;SDS011;16405;53.964;13.448;2023-02-22T11:24:02;55.92;;;19.58;;
29432;SDS011;16405;53.964;13.448;2023-02-22T11:26:39;60.78;;;20.60;;
29432;SDS011;16405;53.964;13.448;2023-02-22T11:32:03;68.78;;;20.98;;
29432;SDS011;16405;53.964;13.448;2023-02-22T11:34:45;70.13;;;19.33;;
29432;SDS011;16405;53.964;13.448;2023-02-22T11:37:31;43.92;;;15.10;;
29432;SDS011;16405;53.964;13.448;2023-02-22T11:40:15;70.15;;;16.08;;
29432;SDS011;16405;53.964;13.448;2023-02-22T11:42:47;57.38;;;17.42;;
29432;SDS011;16405;53.964;13.448;2023-02-22T11:45:29;65.13;;;19.80;;
29432;SDS011;16405;53.964;13.448;2023-02-22T11:48:03;67.60;;;21.25;;
29432;SDS011;16405;53.964;13.448;2023-02-22T11:50:38;71.25;;;21.65;;
29432;SDS011;16405;53.964;13.448;2023-02-22T11:56:35;64.30;;;19.90;;
29432;SDS011;16405;53.964;13.448;2023-02-22T12:04:57;67.25;;;20.90;;
29432;SDS011;16405;53.964;13.448;2023-02-22T12:16:26;74.18;;;22.13;;
29432;SDS011;16405;53.964;13.448;2023-02-22T12:20:04;73.18;;;21.80;;
29432;SDS011;16405;53.964;13.448;2023-02-22T12:22:24;80.63;;;27.88;;
29432;SDS011;16405;53.964;13.448;2023-02-22T12:27:49;34.67;;;12.30;;
29432;SDS011;16405;53.964;13.448;2023-02-22T12:30:29;64.82;;;20.50;;
29432;SDS011;16405;53.964;13.448;2023-02-22T12:33:05;59.58;;;21.55;;
29432;SDS011;16405;53.964;13.448;2023-02-22T12:35:52;73.05;;;23.02;;
29432;SDS011;16405;53.964;13.448;2023-02-22T12:38:29;61.47;;;21.40;;
29432;SDS011;16405;53.964;13.448;2023-02-22T12:41:14;72.78;;;26.42;;
29432;SDS011;16405;53.964;13.448;2023-02-22T12:44:24;65.33;;;22.60;;
29432;SDS011;16405;53.964;13.448;2023-02-22T12:46:58;72.82;;;25.75;;
29432;SDS011;16405;53.964;13.448;2023-02-22T12:49:43;74.78;;;26.85;;
29432;SDS011;16405;53.964;13.448;2023-02-22T12:52:31;81.65;;;27.85;;
29432;SDS011;16405;53.964;13.448;2023-02-22T12:58:20;81.65;;;27.58;;
29432;SDS011;16405;53.964;13.448;2023-02-22T13:01:13;89.43;;;32.75;;
29432;SDS011;16405;53.964;13.448;2023-02-22T13:03:46;80.88;;;29.50;;
29432;SDS011;16405;53.964;13.448;2023-02-22T13:09:00;55.88;;;19.83;;
29432;SDS011;16405;53.964;13.448;2023-02-22T13:20:18;84.70;;;28.17;;
29432;SDS011;16405;53.964;13.448;2023-02-22T13:23:00;95.55;;;30.00;;
29432;SDS011;16405;53.964;13.448;2023-02-22T13:28:59;85.78;;;28.05;;
29432;SDS011;16405;53.964;13.448;2023-02-22T13:40:45;68.68;;;22.38;;
29432;SDS011;16405;53.964;13.448;2023-02-22T13:52:37;79.15;;;25.75;;
29432;SDS011;16405;53.964;13.448;2023-02-22T13:55:05;82.60;;;27.38;;
29432;SDS011;16405;53.964;13.448;2023-02-22T13:57:42;53.40;;;17.20;;
29432;SDS011;16405;53.964;13.448;2023-02-22T14:08:06;89.80;;;27.75;;
29432;SDS011;16405;53.964;13.448;2023-02-22T14:10:58;79.45;;;26.25;;
29432;SDS011;16405;53.964;13.448;2023-02-22T14:16:19;82.32;;;25.65;;
29432;SDS011;16405;53.964;13.448;2023-02-22T14:18:59;88.35;;;28.35;;
29432;SDS011;16405;53.964;13.448;2023-02-22T14:21:41;74.50;;;26.30;;
29432;SDS011;16405;53.964;13.448;2023-02-22T14:24:27;79.00;;;26.42;;
29432;SDS011;16405;53.964;13.448;2023-02-22T14:27:06;75.60;;;24.00;;
29432;SDS011;16405;53.964;13.448;2023-02-22T14:29:35;82.82;;;22.92;;
29432;SDS011;16405;53.964;13.448;2023-02-22T14:37:40;81.50;;;26.95;;
29432;SDS011;16405;53.964;13.448;2023-02-22T14:40:24;66.35;;;20.45;;
29432;SDS011;16405;53.964;13.448;2023-02-22T14:45:46;95.53;;;30.73;;
29432;SDS011;16405;53.964;13.448;2023-02-22T14:48:21;99.50;;;30.80;;
29432;SDS011;16405;53.964;13.448;2023-02-22T14:53:40;97.03;;;31.10;;
29432;SDS011;16405;53.964;13.448;2023-02-22T14:56:31;98.22;;;31.55;;
29432;SDS011;16405;53.964;13.448;2023-02-22T14:59:13;107.88;;;33.45;;
29432;SDS011;16405;53.964;13.448;2023-02-22T15:02:04;77.63;;;26.35;;
29432;SDS011;16405;53.964;13.448;2023-02-22T15:04:48;96.10;;;34.17;;
29432;SDS011;16405;53.964;13.448;2023-02-22T15:07:29;91.13;;;32.67;;
29432;SDS011;16405;53.964;13.448;2023-02-22T15:12:54;53.10;;;17.05;;
29432;SDS011;16405;53.964;13.448;2023-02-22T15:15:36;109.78;;;35.17;;
29432;SDS011;16405;53.964;13.448;2023-02-22T15:18:56;104.50;;;34.00;;
29432;SDS011;16405;53.964;13.448;2023-02-22T15:21:19;99.50;;;33.13;;
29432;SDS011;16405;53.964;13.448;2023-02-22T15:23:59;100.80;;;32.30;;
29432;SDS011;16405;53.964;13.448;2023-02-22T15:26:33;113.97;;;33.97;;
29432;SDS011;16405;53.964;13.448;2023-02-22T15:31:45;90.25;;;31.45;;
29432;SDS011;16405;53.964;13.448;2023-02-22T15:36:53;87.65;;;29.70;;
29432;SDS011;16405;53.964;13.448;2023-02-22T15:42:16;91.63;;;27.95;;
29432;SDS011;16405;53.964;13.448;2023-02-22T15:44:48;83.13;;;27.95;;
29432;SDS011;16405;53.964;13.448;2023-02-22T15:47:18;91.05;;;25.90;;
29432;SDS011;16405;53.964;13.448;2023-02-22T15:52:56;78.03;;;23.20;;
29432;SDS011;16405;53.964;13.448;2023-02-22T15:55:31;62.42;;;18.02;;
29432;SDS011;16405;53.964;13.448;2023-02-22T15:58:22;69.25;;;19.02;;
29432;SDS011;16405;53.964;13.448;2023-02-22T16:00:59;69.78;;;16.85;;
29432;SDS011;16405;53.964;13.448;2023-02-22T16:06:31;53.55;;;14.40;;
29432;SDS011;16405;53.964;13.448;2023-02-22T16:12:38;39.00;;;12.93;;
29432;SDS011;16405;53.964;13.448;2023-02-22T16:14:45;39.08;;;10.00;;
29432;SDS011;16405;53.964;13.448;2023-02-22T16:22:45;46.17;;;13.13;;
29432;SDS011;16405;53.964;13.448;2023-02-22T16:27:50;40.58;;;10.90;;
29432;SDS011;16405;53.964;13.448;2023-02-22T16:30:33;40.70;;;11.30;;
29432;SDS011;16405;53.964;13.448;2023-02-22T16:33:09;47.72;;;9.20;;
29432;SDS011;16405;53.964;13.448;2023-02-22T16:35:42;43.53;;;10.80;;
29432;SDS011;16405;53.964;13.448;2023-02-22T16:38:16;46.22;;;11.05;;
29432;SDS011;16405;53.964;13.448;2023-02-22T16:40:49;41.55;;;10.80;;
29432;SDS011;16405;53.964;13.448;2023-02-22T16:43:21;40.08;;;9.90;;
29432;SDS011;16405;53.964;13.448;2023-02-22T16:45:53;48.50;;;10.68;;
29432;SDS011;16405;53.964;13.448;2023-02-22T16:48:23;37.55;;;7.60;;
29432;SDS011;16405;53.964;13.448;2023-02-22T16:50:57;54.13;;;10.25;;
29432;SDS011;16405;53.964;13.448;2023-02-22T16:53:37;40.42;;;9.73;;
29432;SDS011;16405;53.964;13.448;2023-02-22T16:56:03;44.47;;;10.32;;
29432;SDS011;16405;53.964;13.448;2023-02-22T16:58:33;50.05;;;12.07;;
29432;SDS011;16405;53.964;13.448;2023-02-22T17:01:06;35.35;;;9.88;;
29432;SDS011;16405;53.964;13.448;2023-02-22T17:03:33;54.05;;;11.85;;
29432;SDS011;16405;53.964;13.448;2023-02-22T17:06:00;41.85;;;10.32;;
29432;SDS011;16405;53.964;13.448;2023-02-22T17:08:28;35.50;;;10.88;;
29432;SDS011;16405;53.964;13.448;2023-02-22T17:10:56;45.83;;;12.80;;
29432;SDS011;16405;53.964;13.448;2023-02-22T17:13:24;40.53;;;14.52;;
29432;SDS011;16405;53.964;13.448;2023-02-22T17:15:51;69.03;;;22.40;;
29432;SDS011;16405;53.964;13.448;2023-02-22T17:18:19;55.85;;;15.45;;
29432;SDS011;16405;53.964;13.448;2023-02-22T17:20:57;50.88;;;14.93;;
29432;SDS011;16405;53.964;13.448;2023-02-22T17:23:28;57.65;;;17.83;;
29432;SDS011;16405;53.964;13.448;2023-02-22T17:25:58;50.08;;;15.77;;
29432;SDS011;16405;53.964;13.448;2023-02-22T17:28:28;55.15;;;15.13;;
29432;SDS011;16405;53.964;13.448;2023-02-22T17:30:57;46.42;;;12.65;;
29432;SDS011;16405;53.964;13.448;2023-02-22T17:33:25;23.85;;;6.95;;
29432;SDS011;16405;53.964;13.448;2023-02-22T17:35:55;49.30;;;12.95;;
29432;SDS011;16405;53.964;13.448;2023-02-22T17:38:26;46.25;;;11.50;;
29432;SDS011;16405;53.964;13.448;2023-02-22T17:40:54;32.88;;;10.23;;
29432;SDS011;16405;53.964;13.448;2023-02-22T17:43:21;41.28;;;11.32;;
29432;SDS011;16405;53.964;13.448;2023-02-22T17:45:52;51.47;;;11.25;;
29432;SDS011;16405;53.964;13.448;2023-02-22T17:48:17;32.65;;;8.77;;
29432;SDS011;16405;53.964;13.448;2023-02-22T17:50:44;44.90;;;11.48;;
29432;SDS011;16405;53.964;13.448;2023-02-22T17:53:13;50.10;;;10.52;;
29432;SDS011;16405;53.964;13.448;2023-02-22T17:55:48;35.20;;;9.17;;